sensor_id;sensor_type;location;lat;lon;timestamp;temperature;humidity
47090;DHT22;32840;52.516;13.294;2023-12-07T00:00:44;3.90;99.90
47090;DHT22;32840;52.516;13.294;2023-12-07T00:03:30;4.00;99.90
47090;DHT22;32840;52.516;13.294;2023-12-07T00:06:16;4.10;99.90
47090;DHT22;32840;52.516;13.294;2023-12-07T00:09:01;4.10;99.90
47090;DHT22;32840;52.516;13.294;2023-12-07T00:11:45;4.00;99.90
47090;DHT22;32840;52.516;13.294;2023-12-07T00:14:30;4.10;99.90
47090;DHT22;32840;52.516;13.294;2023-12-07T00:17:15;4.00;99.90
47090;DHT22;32840;52.516;13.294;2023-12-07T00:20:01;4.00;99.90
47090;DHT22;32840;52.516;13.294;2023-12-07T00:22:48;4.00;99.90
47090;DHT22;32840;52.516;13.294;2023-12-07T00:25:33;4.10;99.90
47090;DHT22;32840;52.516;13.294;2023-12-07T00:28:18;4.20;99.90
47090;DHT22;32840;52.516;13.294;2023-12-07T00:31:03;4.10;99.90
47090;DHT22;32840;52.516;13.294;2023-12-07T00:33:48;4.10;99.90
47090;DHT22;32840;52.516;13.294;2023-12-07T00:36:33;4.20;99.90
47090;DHT22;32840;52.516;13.294;2023-12-07T00:39:18;4.20;99.90
47090;DHT22;32840;52.516;13.294;2023-12-07T00:42:03;4.20;99.90
47090;DHT22;32840;52.516;13.294;2023-12-07T00:44:48;4.20;99.90
47090;DHT22;32840;52.516;13.294;2023-12-07T00:47:33;4.30;99.90
47090;DHT22;32840;52.516;13.294;2023-12-07T00:50:18;4.20;99.90
47090;DHT22;32840;52.516;13.294;2023-12-07T00:53:03;4.20;99.90
47090;DHT22;32840;52.516;13.294;2023-12-07T00:55:48;4.10;99.90
47090;DHT22;32840;52.516;13.294;2023-12-07T00:58:33;4.10;99.90
47090;DHT22;32840;52.516;13.294;2023-12-07T01:01:18;4.10;99.90
47090;DHT22;32840;52.516;13.294;2023-12-07T01:04:03;4.10;99.90
47090;DHT22;32840;52.516;13.294;2023-12-07T01:06:48;4.20;99.90
47090;DHT22;32840;52.516;13.294;2023-12-07T01:09:33;4.20;99.90
47090;DHT22;32840;52.516;13.294;2023-12-07T01:12:18;4.30;99.90
47090;DHT22;32840;52.516;13.294;2023-12-07T01:15:03;4.40;99.90
47090;DHT22;32840;52.516;13.294;2023-12-07T01:17:48;4.40;99.90
47090;DHT22;32840;52.516;13.294;2023-12-07T01:20:33;4.40;99.90
47090;DHT22;32840;52.516;13.294;2023-12-07T01:23:19;4.30;99.90
47090;DHT22;32840;52.516;13.294;2023-12-07T01:26:04;4.20;99.90
47090;DHT22;32840;52.516;13.294;2023-12-07T01:28:49;4.10;99.90
47090;DHT22;32840;52.516;13.294;2023-12-07T01:31:34;4.00;99.90
47090;DHT22;32840;52.516;13.294;2023-12-07T01:34:18;4.10;99.90
47090;DHT22;32840;52.516;13.294;2023-12-07T01:37:03;4.10;99.90
47090;DHT22;32840;52.516;13.294;2023-12-07T01:39:48;4.00;99.90
47090;DHT22;32840;52.516;13.294;2023-12-07T01:42:33;4.00;99.90
47090;DHT22;32840;52.516;13.294;2023-12-07T01:45:18;3.90;99.90
47090;DHT22;32840;52.516;13.294;2023-12-07T01:48:04;3.90;99.90
47090;DHT22;32840;52.516;13.294;2023-12-07T01:50:49;3.90;99.90
47090;DHT22;32840;52.516;13.294;2023-12-07T01:53:34;3.90;99.90
47090;DHT22;32840;52.516;13.294;2023-12-07T01:56:19;3.90;99.90
47090;DHT22;32840;52.516;13.294;2023-12-07T01:59:04;3.90;99.90
47090;DHT22;32840;52.516;13.294;2023-12-07T02:01:50;4.10;99.90
47090;DHT22;32840;52.516;13.294;2023-12-07T02:04:35;4.20;99.90
47090;DHT22;32840;52.516;13.294;2023-12-07T02:07:23;4.10;99.90
47090;DHT22;32840;52.516;13.294;2023-12-07T02:10:08;4.20;99.90
47090;DHT22;32840;52.516;13.294;2023-12-07T02:12:54;4.30;99.90
47090;DHT22;32840;52.516;13.294;2023-12-07T02:15:39;4.20;99.90
47090;DHT22;32840;52.516;13.294;2023-12-07T02:21:34;4.40;99.90
47090;DHT22;32840;52.516;13.294;2023-12-07T02:24:25;4.30;99.90
47090;DHT22;32840;52.516;13.294;2023-12-07T02:27:11;4.30;99.90
47090;DHT22;32840;52.516;13.294;2023-12-07T02:29:56;4.20;99.90
47090;DHT22;32840;52.516;13.294;2023-12-07T02:32:43;4.20;99.90
47090;DHT22;32840;52.516;13.294;2023-12-07T02:35:29;4.20;99.90
47090;DHT22;32840;52.516;13.294;2023-12-07T02:38:15;4.20;99.90
47090;DHT22;32840;52.516;13.294;2023-12-07T02:41:01;4.20;99.90
47090;DHT22;32840;52.516;13.294;2023-12-07T02:43:46;4.20;99.90
47090;DHT22;32840;52.516;13.294;2023-12-07T02:46:31;4.10;99.90
47090;DHT22;32840;52.516;13.294;2023-12-07T02:49:17;4.10;99.90
47090;DHT22;32840;52.516;13.294;2023-12-07T02:52:02;4.00;99.90
47090;DHT22;32840;52.516;13.294;2023-12-07T02:54:46;4.00;99.90
47090;DHT22;32840;52.516;13.294;2023-12-07T02:57:33;3.90;99.90
47090;DHT22;32840;52.516;13.294;2023-12-07T03:00:20;4.00;99.90
47090;DHT22;32840;52.516;13.294;2023-12-07T03:03:06;4.00;99.90
47090;DHT22;32840;52.516;13.294;2023-12-07T03:05:51;4.10;99.90
47090;DHT22;32840;52.516;13.294;2023-12-07T03:08:36;4.10;99.90
47090;DHT22;32840;52.516;13.294;2023-12-07T03:11:21;4.10;99.90
47090;DHT22;32840;52.516;13.294;2023-12-07T03:14:07;4.20;99.90
47090;DHT22;32840;52.516;13.294;2023-12-07T03:16:52;4.20;99.90
47090;DHT22;32840;52.516;13.294;2023-12-07T03:19:41;4.10;99.90
47090;DHT22;32840;52.516;13.294;2023-12-07T03:22:25;4.10;99.90
47090;DHT22;32840;52.516;13.294;2023-12-07T03:25:10;4.10;99.90
47090;DHT22;32840;52.516;13.294;2023-12-07T03:27:55;4.20;99.90
47090;DHT22;32840;52.516;13.294;2023-12-07T03:30:40;4.30;99.90
47090;DHT22;32840;52.516;13.294;2023-12-07T03:33:25;4.30;99.90
47090;DHT22;32840;52.516;13.294;2023-12-07T03:36:13;4.30;99.90
47090;DHT22;32840;52.516;13.294;2023-12-07T03:38:58;4.20;99.90
47090;DHT22;32840;52.516;13.294;2023-12-07T03:41:43;4.10;99.90
47090;DHT22;32840;52.516;13.294;2023-12-07T03:44:27;4.20;99.90
47090;DHT22;32840;52.516;13.294;2023-12-07T03:47:12;4.30;99.90
47090;DHT22;32840;52.516;13.294;2023-12-07T03:49:57;4.20;99.90
47090;DHT22;32840;52.516;13.294;2023-12-07T03:52:42;4.10;99.90
47090;DHT22;32840;52.516;13.294;2023-12-07T03:55:27;4.00;99.90
47090;DHT22;32840;52.516;13.294;2023-12-07T03:58:12;4.10;99.90
47090;DHT22;32840;52.516;13.294;2023-12-07T04:00:57;4.00;99.90
47090;DHT22;32840;52.516;13.294;2023-12-07T04:03:42;4.10;99.90
47090;DHT22;32840;52.516;13.294;2023-12-07T04:06:27;4.20;99.90
47090;DHT22;32840;52.516;13.294;2023-12-07T04:09:12;4.30;99.90
47090;DHT22;32840;52.516;13.294;2023-12-07T04:11:57;4.40;99.90
47090;DHT22;32840;52.516;13.294;2023-12-07T04:14:42;4.40;99.90
47090;DHT22;32840;52.516;13.294;2023-12-07T04:17:27;4.40;99.90
47090;DHT22;32840;52.516;13.294;2023-12-07T04:20:12;4.50;99.90
47090;DHT22;32840;52.516;13.294;2023-12-07T04:22:57;4.60;99.90
47090;DHT22;32840;52.516;13.294;2023-12-07T04:25:42;4.40;99.90
47090;DHT22;32840;52.516;13.294;2023-12-07T04:28:27;4.40;99.90
47090;DHT22;32840;52.516;13.294;2023-12-07T04:31:12;4.40;99.90
47090;DHT22;32840;52.516;13.294;2023-12-07T04:33:57;4.40;99.90
47090;DHT22;32840;52.516;13.294;2023-12-07T04:36:42;4.50;99.90
47090;DHT22;32840;52.516;13.294;2023-12-07T04:39:26;4.50;99.90
47090;DHT22;32840;52.516;13.294;2023-12-07T04:42:11;4.40;99.90
47090;DHT22;32840;52.516;13.294;2023-12-07T04:44:56;4.20;99.90
47090;DHT22;32840;52.516;13.294;2023-12-07T04:47:41;4.30;99.90
47090;DHT22;32840;52.516;13.294;2023-12-07T04:50:27;4.30;99.90
47090;DHT22;32840;52.516;13.294;2023-12-07T04:53:12;4.10;99.90
47090;DHT22;32840;52.516;13.294;2023-12-07T04:55:57;4.00;99.90
47090;DHT22;32840;52.516;13.294;2023-12-07T04:58:42;4.00;99.90
47090;DHT22;32840;52.516;13.294;2023-12-07T05:01:26;4.00;99.90
47090;DHT22;32840;52.516;13.294;2023-12-07T05:04:11;4.10;99.90
47090;DHT22;32840;52.516;13.294;2023-12-07T05:06:56;4.00;99.90
47090;DHT22;32840;52.516;13.294;2023-12-07T05:09:41;4.10;99.90
47090;DHT22;32840;52.516;13.294;2023-12-07T05:12:26;4.20;99.90
47090;DHT22;32840;52.516;13.294;2023-12-07T05:15:12;4.10;99.90
47090;DHT22;32840;52.516;13.294;2023-12-07T05:17:57;4.00;99.90
47090;DHT22;32840;52.516;13.294;2023-12-07T05:20:42;4.00;99.90
47090;DHT22;32840;52.516;13.294;2023-12-07T05:23:27;4.00;99.90
47090;DHT22;32840;52.516;13.294;2023-12-07T05:26:12;4.00;99.90
47090;DHT22;32840;52.516;13.294;2023-12-07T05:28:57;4.00;99.90
47090;DHT22;32840;52.516;13.294;2023-12-07T05:31:42;4.10;99.90
47090;DHT22;32840;52.516;13.294;2023-12-07T05:34:28;4.20;99.90
47090;DHT22;32840;52.516;13.294;2023-12-07T05:37:14;4.20;99.90
47090;DHT22;32840;52.516;13.294;2023-12-07T05:39:59;4.30;99.90
47090;DHT22;32840;52.516;13.294;2023-12-07T05:42:44;4.30;99.90
47090;DHT22;32840;52.516;13.294;2023-12-07T05:45:29;4.20;99.90
47090;DHT22;32840;52.516;13.294;2023-12-07T05:48:17;4.20;99.90
47090;DHT22;32840;52.516;13.294;2023-12-07T05:51:03;4.10;99.90
47090;DHT22;32840;52.516;13.294;2023-12-07T05:53:48;4.20;99.90
47090;DHT22;32840;52.516;13.294;2023-12-07T05:56:33;4.10;99.90
47090;DHT22;32840;52.516;13.294;2023-12-07T05:59:18;4.00;99.90
47090;DHT22;32840;52.516;13.294;2023-12-07T06:02:04;4.20;99.90
47090;DHT22;32840;52.516;13.294;2023-12-07T06:04:49;4.00;99.90
47090;DHT22;32840;52.516;13.294;2023-12-07T06:07:34;3.90;99.90
47090;DHT22;32840;52.516;13.294;2023-12-07T06:10:19;4.00;99.90
47090;DHT22;32840;52.516;13.294;2023-12-07T06:13:04;4.00;99.90
47090;DHT22;32840;52.516;13.294;2023-12-07T06:15:49;4.00;99.90
47090;DHT22;32840;52.516;13.294;2023-12-07T06:18:33;4.10;99.90
47090;DHT22;32840;52.516;13.294;2023-12-07T06:21:18;4.20;99.90
47090;DHT22;32840;52.516;13.294;2023-12-07T06:24:04;4.10;99.90
47090;DHT22;32840;52.516;13.294;2023-12-07T06:26:48;4.10;99.90
47090;DHT22;32840;52.516;13.294;2023-12-07T06:29:33;4.20;99.90
47090;DHT22;32840;52.516;13.294;2023-12-07T06:32:18;4.20;99.90
47090;DHT22;32840;52.516;13.294;2023-12-07T06:35:03;4.10;99.90
47090;DHT22;32840;52.516;13.294;2023-12-07T06:37:50;4.10;99.90
47090;DHT22;32840;52.516;13.294;2023-12-07T06:40:35;4.00;99.90
47090;DHT22;32840;52.516;13.294;2023-12-07T06:43:20;4.00;99.90
47090;DHT22;32840;52.516;13.294;2023-12-07T06:46:04;4.00;99.90
47090;DHT22;32840;52.516;13.294;2023-12-07T06:48:51;4.20;99.90
47090;DHT22;32840;52.516;13.294;2023-12-07T06:51:35;4.10;99.90
47090;DHT22;32840;52.516;13.294;2023-12-07T06:54:20;4.00;99.90
47090;DHT22;32840;52.516;13.294;2023-12-07T06:57:05;4.00;99.90
47090;DHT22;32840;52.516;13.294;2023-12-07T06:59:52;4.10;99.90
47090;DHT22;32840;52.516;13.294;2023-12-07T07:02:40;4.30;99.90
47090;DHT22;32840;52.516;13.294;2023-12-07T07:05:24;4.20;99.90
47090;DHT22;32840;52.516;13.294;2023-12-07T07:08:09;4.20;99.90
47090;DHT22;32840;52.516;13.294;2023-12-07T07:10:55;4.10;99.90
47090;DHT22;32840;52.516;13.294;2023-12-07T07:13:40;4.20;99.90
47090;DHT22;32840;52.516;13.294;2023-12-07T07:16:24;4.20;99.90
47090;DHT22;32840;52.516;13.294;2023-12-07T07:19:10;4.30;99.90
47090;DHT22;32840;52.516;13.294;2023-12-07T07:21:55;4.30;99.90
47090;DHT22;32840;52.516;13.294;2023-12-07T07:24:40;4.30;99.90
47090;DHT22;32840;52.516;13.294;2023-12-07T07:27:25;4.20;99.90
47090;DHT22;32840;52.516;13.294;2023-12-07T07:30:10;4.30;99.90
47090;DHT22;32840;52.516;13.294;2023-12-07T07:32:55;4.40;99.90
47090;DHT22;32840;52.516;13.294;2023-12-07T07:35:42;4.20;99.90
47090;DHT22;32840;52.516;13.294;2023-12-07T07:38:26;4.20;99.90
47090;DHT22;32840;52.516;13.294;2023-12-07T07:41:11;4.30;99.90
47090;DHT22;32840;52.516;13.294;2023-12-07T07:43:56;4.30;99.90
47090;DHT22;32840;52.516;13.294;2023-12-07T07:46:44;4.20;99.90
47090;DHT22;32840;52.516;13.294;2023-12-07T07:49:28;4.30;99.90
47090;DHT22;32840;52.516;13.294;2023-12-07T07:52:13;4.30;99.90
47090;DHT22;32840;52.516;13.294;2023-12-07T07:55:00;4.40;99.90
47090;DHT22;32840;52.516;13.294;2023-12-07T07:57:44;4.50;99.90
47090;DHT22;32840;52.516;13.294;2023-12-07T08:00:29;4.40;99.90
47090;DHT22;32840;52.516;13.294;2023-12-07T08:03:15;4.30;99.90
47090;DHT22;32840;52.516;13.294;2023-12-07T08:06:00;4.40;99.90
47090;DHT22;32840;52.516;13.294;2023-12-07T08:08:45;4.30;99.90
47090;DHT22;32840;52.516;13.294;2023-12-07T08:11:30;4.40;99.90
47090;DHT22;32840;52.516;13.294;2023-12-07T08:14:14;4.40;99.90
47090;DHT22;32840;52.516;13.294;2023-12-07T08:16:59;4.50;99.90
47090;DHT22;32840;52.516;13.294;2023-12-07T08:19:44;4.60;99.90
47090;DHT22;32840;52.516;13.294;2023-12-07T08:22:29;4.60;99.90
47090;DHT22;32840;52.516;13.294;2023-12-07T08:25:14;4.60;99.90
47090;DHT22;32840;52.516;13.294;2023-12-07T08:27:59;4.60;99.90
47090;DHT22;32840;52.516;13.294;2023-12-07T08:30:45;4.60;99.90
47090;DHT22;32840;52.516;13.294;2023-12-07T08:33:30;4.50;99.90
47090;DHT22;32840;52.516;13.294;2023-12-07T08:36:15;4.40;99.90
47090;DHT22;32840;52.516;13.294;2023-12-07T08:39:01;4.50;99.90
47090;DHT22;32840;52.516;13.294;2023-12-07T08:41:46;4.60;99.90
47090;DHT22;32840;52.516;13.294;2023-12-07T08:44:32;4.40;99.90
47090;DHT22;32840;52.516;13.294;2023-12-07T08:47:16;4.40;99.90
47090;DHT22;32840;52.516;13.294;2023-12-07T08:50:01;4.40;99.90
47090;DHT22;32840;52.516;13.294;2023-12-07T08:52:46;4.40;99.90
47090;DHT22;32840;52.516;13.294;2023-12-07T08:55:32;4.30;99.90
47090;DHT22;32840;52.516;13.294;2023-12-07T08:58:17;4.30;99.90
47090;DHT22;32840;52.516;13.294;2023-12-07T09:01:01;4.40;99.90
47090;DHT22;32840;52.516;13.294;2023-12-07T09:03:46;4.50;99.90
47090;DHT22;32840;52.516;13.294;2023-12-07T09:06:32;4.60;99.90
47090;DHT22;32840;52.516;13.294;2023-12-07T09:09:16;4.60;99.90
47090;DHT22;32840;52.516;13.294;2023-12-07T09:12:01;4.60;99.90
47090;DHT22;32840;52.516;13.294;2023-12-07T09:14:46;4.70;99.90
47090;DHT22;32840;52.516;13.294;2023-12-07T09:17:31;4.70;99.90
47090;DHT22;32840;52.516;13.294;2023-12-07T09:20:16;4.80;99.90
47090;DHT22;32840;52.516;13.294;2023-12-07T09:23:01;4.80;99.90
47090;DHT22;32840;52.516;13.294;2023-12-07T09:25:46;4.80;99.90
47090;DHT22;32840;52.516;13.294;2023-12-07T09:28:31;4.80;99.90
47090;DHT22;32840;52.516;13.294;2023-12-07T09:31:17;4.80;99.90
47090;DHT22;32840;52.516;13.294;2023-12-07T09:34:02;4.70;99.90
47090;DHT22;32840;52.516;13.294;2023-12-07T09:36:48;4.60;99.90
47090;DHT22;32840;52.516;13.294;2023-12-07T09:39:33;4.80;99.90
47090;DHT22;32840;52.516;13.294;2023-12-07T09:42:20;4.90;99.90
47090;DHT22;32840;52.516;13.294;2023-12-07T09:45:06;4.90;99.90
47090;DHT22;32840;52.516;13.294;2023-12-07T09:47:52;4.90;99.90
47090;DHT22;32840;52.516;13.294;2023-12-07T09:50:37;4.80;99.90
47090;DHT22;32840;52.516;13.294;2023-12-07T09:53:22;4.60;99.90
47090;DHT22;32840;52.516;13.294;2023-12-07T09:56:07;4.60;99.90
47090;DHT22;32840;52.516;13.294;2023-12-07T09:58:54;4.50;99.90
47090;DHT22;32840;52.516;13.294;2023-12-07T10:01:40;4.50;99.90
47090;DHT22;32840;52.516;13.294;2023-12-07T10:04:24;4.40;99.90
47090;DHT22;32840;52.516;13.294;2023-12-07T10:07:12;4.30;99.90
47090;DHT22;32840;52.516;13.294;2023-12-07T10:09:57;4.30;99.90
47090;DHT22;32840;52.516;13.294;2023-12-07T10:15:34;4.60;99.90
47090;DHT22;32840;52.516;13.294;2023-12-07T10:18:23;4.80;99.90
47090;DHT22;32840;52.516;13.294;2023-12-07T10:21:12;4.80;99.90
47090;DHT22;32840;52.516;13.294;2023-12-07T10:24:01;4.80;99.90
47090;DHT22;32840;52.516;13.294;2023-12-07T10:26:48;4.90;99.90
47090;DHT22;32840;52.516;13.294;2023-12-07T10:29:38;4.70;99.90
47090;DHT22;32840;52.516;13.294;2023-12-07T10:32:22;4.50;99.90
47090;DHT22;32840;52.516;13.294;2023-12-07T10:35:08;4.50;99.90
47090;DHT22;32840;52.516;13.294;2023-12-07T10:37:53;4.70;99.90
47090;DHT22;32840;52.516;13.294;2023-12-07T10:40:39;4.80;99.90
47090;DHT22;32840;52.516;13.294;2023-12-07T10:43:24;4.90;99.90
47090;DHT22;32840;52.516;13.294;2023-12-07T10:46:10;4.90;99.90
47090;DHT22;32840;52.516;13.294;2023-12-07T10:49:00;4.80;99.90
47090;DHT22;32840;52.516;13.294;2023-12-07T10:51:51;4.80;99.90
47090;DHT22;32840;52.516;13.294;2023-12-07T10:54:53;4.90;99.90
47090;DHT22;32840;52.516;13.294;2023-12-07T10:57:41;5.00;99.90
47090;DHT22;32840;52.516;13.294;2023-12-07T11:00:27;5.20;99.90
47090;DHT22;32840;52.516;13.294;2023-12-07T11:03:17;5.20;99.90
47090;DHT22;32840;52.516;13.294;2023-12-07T11:06:01;5.00;99.90
47090;DHT22;32840;52.516;13.294;2023-12-07T11:09:08;4.90;99.90
47090;DHT22;32840;52.516;13.294;2023-12-07T11:12:02;4.90;99.90
47090;DHT22;32840;52.516;13.294;2023-12-07T11:14:50;4.80;99.90
47090;DHT22;32840;52.516;13.294;2023-12-07T11:18:05;4.70;99.90
47090;DHT22;32840;52.516;13.294;2023-12-07T11:20:50;4.80;99.90
47090;DHT22;32840;52.516;13.294;2023-12-07T11:23:36;5.00;99.90
47090;DHT22;32840;52.516;13.294;2023-12-07T11:26:27;5.10;99.90
47090;DHT22;32840;52.516;13.294;2023-12-07T11:29:11;5.20;99.90
47090;DHT22;32840;52.516;13.294;2023-12-07T11:32:00;5.10;99.90
47090;DHT22;32840;52.516;13.294;2023-12-07T11:34:45;5.10;99.90
47090;DHT22;32840;52.516;13.294;2023-12-07T11:38:03;5.20;99.90
47090;DHT22;32840;52.516;13.294;2023-12-07T11:40:50;5.30;99.90
47090;DHT22;32840;52.516;13.294;2023-12-07T11:46:20;5.30;99.90
47090;DHT22;32840;52.516;13.294;2023-12-07T11:49:05;5.40;99.90
47090;DHT22;32840;52.516;13.294;2023-12-07T11:51:55;5.20;99.90
47090;DHT22;32840;52.516;13.294;2023-12-07T11:54:39;5.10;99.90
47090;DHT22;32840;52.516;13.294;2023-12-07T11:57:24;4.90;99.90
47090;DHT22;32840;52.516;13.294;2023-12-07T12:00:10;4.90;99.90
47090;DHT22;32840;52.516;13.294;2023-12-07T12:02:57;4.90;99.90
47090;DHT22;32840;52.516;13.294;2023-12-07T12:05:43;4.70;99.90
47090;DHT22;32840;52.516;13.294;2023-12-07T12:08:28;4.90;99.90
47090;DHT22;32840;52.516;13.294;2023-12-07T12:11:13;5.00;99.90
47090;DHT22;32840;52.516;13.294;2023-12-07T12:13:58;5.00;99.90
47090;DHT22;32840;52.516;13.294;2023-12-07T12:16:44;4.90;99.90
47090;DHT22;32840;52.516;13.294;2023-12-07T12:19:29;5.10;99.90
47090;DHT22;32840;52.516;13.294;2023-12-07T12:22:18;5.10;99.90
47090;DHT22;32840;52.516;13.294;2023-12-07T12:25:04;5.20;99.90
47090;DHT22;32840;52.516;13.294;2023-12-07T12:27:52;5.00;99.90
47090;DHT22;32840;52.516;13.294;2023-12-07T12:30:37;4.90;99.90
47090;DHT22;32840;52.516;13.294;2023-12-07T12:33:21;4.90;99.90
47090;DHT22;32840;52.516;13.294;2023-12-07T12:36:07;5.00;99.90
47090;DHT22;32840;52.516;13.294;2023-12-07T12:38:52;4.90;99.90
47090;DHT22;32840;52.516;13.294;2023-12-07T12:41:37;4.90;99.90
47090;DHT22;32840;52.516;13.294;2023-12-07T12:44:23;4.70;99.90
47090;DHT22;32840;52.516;13.294;2023-12-07T12:47:08;4.70;99.90
47090;DHT22;32840;52.516;13.294;2023-12-07T12:49:53;4.60;99.90
47090;DHT22;32840;52.516;13.294;2023-12-07T12:52:41;4.70;99.90
47090;DHT22;32840;52.516;13.294;2023-12-07T12:55:26;4.70;99.90
47090;DHT22;32840;52.516;13.294;2023-12-07T12:58:11;4.70;99.90
47090;DHT22;32840;52.516;13.294;2023-12-07T13:00:56;4.70;99.90
47090;DHT22;32840;52.516;13.294;2023-12-07T13:03:41;4.90;99.90
47090;DHT22;32840;52.516;13.294;2023-12-07T13:06:26;4.80;99.90
47090;DHT22;32840;52.516;13.294;2023-12-07T13:09:10;4.80;99.90
47090;DHT22;32840;52.516;13.294;2023-12-07T13:11:55;4.90;99.90
47090;DHT22;32840;52.516;13.294;2023-12-07T13:14:40;5.00;99.90
47090;DHT22;32840;52.516;13.294;2023-12-07T13:17:25;5.20;99.90
47090;DHT22;32840;52.516;13.294;2023-12-07T13:20:11;5.10;99.90
47090;DHT22;32840;52.516;13.294;2023-12-07T13:22:57;5.10;99.90
47090;DHT22;32840;52.516;13.294;2023-12-07T13:25:43;5.10;99.90
47090;DHT22;32840;52.516;13.294;2023-12-07T13:28:30;5.10;99.90
47090;DHT22;32840;52.516;13.294;2023-12-07T13:31:14;5.10;99.90
47090;DHT22;32840;52.516;13.294;2023-12-07T13:33:59;5.20;99.90
47090;DHT22;32840;52.516;13.294;2023-12-07T13:36:44;5.30;99.90
47090;DHT22;32840;52.516;13.294;2023-12-07T13:39:29;5.20;99.90
47090;DHT22;32840;52.516;13.294;2023-12-07T13:42:15;5.10;99.90
47090;DHT22;32840;52.516;13.294;2023-12-07T13:45:00;5.00;99.90
47090;DHT22;32840;52.516;13.294;2023-12-07T13:47:45;4.90;99.90
47090;DHT22;32840;52.516;13.294;2023-12-07T13:50:30;4.80;99.90
47090;DHT22;32840;52.516;13.294;2023-12-07T13:53:15;4.80;99.90
47090;DHT22;32840;52.516;13.294;2023-12-07T13:56:00;4.80;99.90
47090;DHT22;32840;52.516;13.294;2023-12-07T13:58:45;4.80;99.90
47090;DHT22;32840;52.516;13.294;2023-12-07T14:01:31;4.90;99.90
47090;DHT22;32840;52.516;13.294;2023-12-07T14:04:19;5.00;99.90
47090;DHT22;32840;52.516;13.294;2023-12-07T14:07:14;5.10;99.90
47090;DHT22;32840;52.516;13.294;2023-12-07T14:09:59;5.20;99.90
47090;DHT22;32840;52.516;13.294;2023-12-07T14:12:45;5.00;99.90
47090;DHT22;32840;52.516;13.294;2023-12-07T14:15:41;5.00;99.90
47090;DHT22;32840;52.516;13.294;2023-12-07T14:18:34;5.00;99.90
47090;DHT22;32840;52.516;13.294;2023-12-07T14:21:27;5.10;99.90
47090;DHT22;32840;52.516;13.294;2023-12-07T14:24:12;5.10;99.90
47090;DHT22;32840;52.516;13.294;2023-12-07T14:26:57;5.10;99.90
47090;DHT22;32840;52.516;13.294;2023-12-07T14:29:42;5.10;99.90
47090;DHT22;32840;52.516;13.294;2023-12-07T14:32:27;5.20;99.90
47090;DHT22;32840;52.516;13.294;2023-12-07T14:35:13;5.20;99.90
47090;DHT22;32840;52.516;13.294;2023-12-07T14:38:00;5.20;99.90
47090;DHT22;32840;52.516;13.294;2023-12-07T14:40:45;5.20;99.90
47090;DHT22;32840;52.516;13.294;2023-12-07T14:43:30;5.20;99.90
47090;DHT22;32840;52.516;13.294;2023-12-07T14:46:15;5.10;99.90
47090;DHT22;32840;52.516;13.294;2023-12-07T14:49:00;5.10;99.90
47090;DHT22;32840;52.516;13.294;2023-12-07T14:51:49;5.30;99.90
47090;DHT22;32840;52.516;13.294;2023-12-07T14:54:36;5.20;99.90
47090;DHT22;32840;52.516;13.294;2023-12-07T14:57:25;5.00;99.90
47090;DHT22;32840;52.516;13.294;2023-12-07T15:00:11;5.00;99.90
47090;DHT22;32840;52.516;13.294;2023-12-07T15:02:56;5.00;99.90
47090;DHT22;32840;52.516;13.294;2023-12-07T15:05:41;5.00;99.90
47090;DHT22;32840;52.516;13.294;2023-12-07T15:08:31;5.20;99.90
47090;DHT22;32840;52.516;13.294;2023-12-07T15:11:23;5.30;99.90
47090;DHT22;32840;52.516;13.294;2023-12-07T15:14:11;5.20;99.90
47090;DHT22;32840;52.516;13.294;2023-12-07T15:16:58;5.30;99.90
47090;DHT22;32840;52.516;13.294;2023-12-07T15:19:45;5.20;99.90
47090;DHT22;32840;52.516;13.294;2023-12-07T15:22:30;5.10;99.90
47090;DHT22;32840;52.516;13.294;2023-12-07T15:25:15;5.10;99.90
47090;DHT22;32840;52.516;13.294;2023-12-07T15:28:03;5.30;99.90
47090;DHT22;32840;52.516;13.294;2023-12-07T15:30:49;5.20;99.90
47090;DHT22;32840;52.516;13.294;2023-12-07T15:33:36;5.20;99.90
47090;DHT22;32840;52.516;13.294;2023-12-07T15:36:25;5.20;99.90
47090;DHT22;32840;52.516;13.294;2023-12-07T15:39:13;5.20;99.90
47090;DHT22;32840;52.516;13.294;2023-12-07T15:42:00;5.30;99.90
47090;DHT22;32840;52.516;13.294;2023-12-07T15:44:49;5.30;99.90
47090;DHT22;32840;52.516;13.294;2023-12-07T15:47:34;5.30;99.90
47090;DHT22;32840;52.516;13.294;2023-12-07T15:50:19;5.30;99.90
47090;DHT22;32840;52.516;13.294;2023-12-07T15:53:05;5.10;99.90
47090;DHT22;32840;52.516;13.294;2023-12-07T15:55:53;5.10;99.90
47090;DHT22;32840;52.516;13.294;2023-12-07T15:58:37;5.10;99.90
47090;DHT22;32840;52.516;13.294;2023-12-07T16:01:33;5.00;99.90
47090;DHT22;32840;52.516;13.294;2023-12-07T16:04:18;5.00;99.90
47090;DHT22;32840;52.516;13.294;2023-12-07T16:07:05;4.90;99.90
47090;DHT22;32840;52.516;13.294;2023-12-07T16:09:53;4.90;99.90
47090;DHT22;32840;52.516;13.294;2023-12-07T16:12:42;4.90;99.90
47090;DHT22;32840;52.516;13.294;2023-12-07T16:15:32;4.80;99.90
47090;DHT22;32840;52.516;13.294;2023-12-07T16:18:24;4.70;99.90
47090;DHT22;32840;52.516;13.294;2023-12-07T16:21:13;4.80;99.90
47090;DHT22;32840;52.516;13.294;2023-12-07T16:24:07;4.80;99.90
47090;DHT22;32840;52.516;13.294;2023-12-07T16:26:53;4.80;99.90
47090;DHT22;32840;52.516;13.294;2023-12-07T16:29:45;5.00;99.90
47090;DHT22;32840;52.516;13.294;2023-12-07T16:32:31;4.90;99.90
47090;DHT22;32840;52.516;13.294;2023-12-07T16:35:16;4.90;99.90
47090;DHT22;32840;52.516;13.294;2023-12-07T16:38:08;4.90;99.90
47090;DHT22;32840;52.516;13.294;2023-12-07T16:40:58;4.90;99.90
47090;DHT22;32840;52.516;13.294;2023-12-07T16:43:43;4.90;99.90
47090;DHT22;32840;52.516;13.294;2023-12-07T16:46:29;4.90;99.90
47090;DHT22;32840;52.516;13.294;2023-12-07T16:49:17;4.90;99.90
47090;DHT22;32840;52.516;13.294;2023-12-07T16:52:04;4.90;99.90
47090;DHT22;32840;52.516;13.294;2023-12-07T16:54:51;4.90;99.90
47090;DHT22;32840;52.516;13.294;2023-12-07T16:57:43;4.90;99.90
47090;DHT22;32840;52.516;13.294;2023-12-07T17:00:28;4.90;99.90
47090;DHT22;32840;52.516;13.294;2023-12-07T17:03:13;5.00;99.90
47090;DHT22;32840;52.516;13.294;2023-12-07T17:06:00;5.00;99.90
47090;DHT22;32840;52.516;13.294;2023-12-07T17:08:45;4.90;99.90
47090;DHT22;32840;52.516;13.294;2023-12-07T17:11:34;4.90;99.90
47090;DHT22;32840;52.516;13.294;2023-12-07T17:14:21;4.80;99.90
47090;DHT22;32840;52.516;13.294;2023-12-07T17:17:10;4.80;99.90
47090;DHT22;32840;52.516;13.294;2023-12-07T17:19:56;4.70;99.90
47090;DHT22;32840;52.516;13.294;2023-12-07T17:22:42;4.80;99.90
47090;DHT22;32840;52.516;13.294;2023-12-07T17:25:30;4.80;99.90
47090;DHT22;32840;52.516;13.294;2023-12-07T17:28:17;4.70;99.90
47090;DHT22;32840;52.516;13.294;2023-12-07T17:31:04;4.70;99.90
47090;DHT22;32840;52.516;13.294;2023-12-07T17:33:52;4.70;99.90
47090;DHT22;32840;52.516;13.294;2023-12-07T17:36:37;4.70;99.90